Time;durP1;ratioP1;P1;durP2;ratioP2;P2;SDS_P1;SDS_P2;PMS_P1;PMS_P2;Temp;Humidity;BMP_temperature;BMP_pressure;BME280_temperature;BME280_humidity;BME280_pressure;Samples;Min_cycle;Max_cycle;Signal;HPM_P1;HPM_P2
2022/03/08 00:00:53;;;;;;;;;38.75;36.25;;;;;7.54;38.34;101206.97;2121770;27;47824;-54
2022/03/08 00:01:54;;;;;;;;;39.75;36.75;;;;;7.53;38.52;101208.75;2095526;28;47499;-53
2022/03/08 00:02:54;;;;;;;;;39.25;34.00;;;;;7.52;38.25;101201.69;2102618;27;48088;-55
2022/03/08 00:03:55;;;;;;;;;41.75;37.00;;;;;7.51;38.39;101201.72;2126655;27;47623;-54
2022/03/08 00:04:56;;;;;;;;;37.60;35.40;;;;;7.51;38.51;101197.31;2124912;27;47801;-53
2022/03/08 00:05:56;;;;;;;;;40.50;35.25;;;;;7.50;38.22;101203.47;2123359;27;47499;-55
2022/03/08 00:06:57;;;;;;;;;34.50;32.25;;;;;7.50;38.53;101200.81;2123351;27;47141;-50
2022/03/08 00:07:58;;;;;;;;;37.50;36.25;;;;;7.50;38.36;101197.31;2121952;27;47854;-52
2022/03/08 00:08:58;;;;;;;;;38.60;35.80;;;;;7.50;38.45;101202.59;2125283;27;47844;-51
2022/03/08 00:09:59;;;;;;;;;46.00;39.50;;;;;7.49;38.36;101200.81;2129768;27;47601;-52
2022/03/08 00:11:02;;;;;;;;;42.50;35.25;;;;;7.48;38.41;101191.13;2121391;27;47766;-52
2022/03/08 00:12:03;;;;;;;;;35.80;33.80;;;;;7.45;38.40;101199.94;2126167;27;47600;-53
2022/03/08 00:13:04;;;;;;;;;34.50;33.75;;;;;7.46;38.39;101196.41;2127426;27;47281;-52
2022/03/08 00:14:04;;;;;;;;;38.00;34.50;;;;;7.45;38.55;101193.78;2122547;27;47376;-53
2022/03/08 00:15:13;;;;;;;;;41.25;34.50;;;;;7.44;38.50;101194.66;2123595;27;47528;-55
2022/03/08 00:16:13;;;;;;;;;41.40;36.80;;;;;7.44;38.50;101198.19;2130417;27;47495;-54
2022/03/08 00:17:13;;;;;;;;;39.50;36.50;;;;;7.44;38.67;101199.94;2127263;27;47702;-50
2022/03/08 00:18:15;;;;;;;;;38.50;37.00;;;;;7.44;38.69;101195.53;2125913;27;47419;-57
2022/03/08 00:19:16;;;;;;;;;36.60;33.60;;;;;7.43;38.45;101188.50;2125834;27;47720;-52
2022/03/08 00:20:17;;;;;;;;;47.50;37.50;;;;;7.42;38.68;101189.38;2130483;27;47231;-52
2022/03/08 00:21:18;;;;;;;;;36.80;33.40;;;;;7.42;38.70;101194.66;2122388;27;47905;-54
2022/03/08 00:22:19;;;;;;;;;35.60;33.20;;;;;7.42;38.71;101188.50;2121901;27;47197;-52
2022/03/08 00:23:19;;;;;;;;;46.00;37.25;;;;;7.41;38.44;101194.66;2122101;27;47658;-54
2022/03/08 00:24:20;;;;;;;;;36.75;34.25;;;;;7.38;38.72;101187.63;2121931;27;47569;-55
2022/03/08 00:25:20;;;;;;;;;37.00;34.50;;;;;7.37;38.59;101189.41;2127611;27;47526;-53
2022/03/08 00:26:20;;;;;;;;;42.25;37.25;;;;;7.36;38.52;101195.53;2123442;27;47137;-56
2022/03/08 00:27:21;;;;;;;;;40.00;35.75;;;;;7.37;38.42;101193.81;2119988;27;51354;-54
2022/03/08 00:28:21;;;;;;;;;40.00;36.50;;;;;7.37;38.70;101199.09;2120464;27;47913;-54
2022/03/08 00:29:22;;;;;;;;;37.25;35.50;;;;;7.35;38.70;101191.13;2121590;27;47419;-55
2022/03/08 00:30:26;;;;;;;;;40.50;35.00;;;;;7.34;38.66;101192.03;2121963;27;47594;-54
2022/03/08 00:31:27;;;;;;;;;38.40;35.80;;;;;7.33;38.59;101192.03;2130126;27;48040;-54
2022/03/08 00:32:27;;;;;;;;;41.25;34.50;;;;;7.32;38.89;101179.72;2122964;27;47631;-53
2022/03/08 00:33:28;;;;;;;;;37.25;33.75;;;;;7.32;38.85;101192.91;2128143;27;47420;-54
2022/03/08 00:34:28;;;;;;;;;36.25;31.50;;;;;7.31;38.87;101186.75;2128326;27;47876;-55
2022/03/08 00:35:29;;;;;;;;;46.00;38.50;;;;;7.32;39.09;101198.19;2122029;27;47248;-55
2022/03/08 00:36:31;;;;;;;;;39.00;36.20;;;;;7.32;38.85;101196.44;2121812;27;47383;-54
2022/03/08 00:37:31;;;;;;;;;45.80;39.00;;;;;7.33;38.97;101194.66;2112577;27;47813;-54
2022/03/08 00:38:32;;;;;;;;;46.50;37.75;;;;;7.32;39.06;101191.16;2105753;27;47487;-50
2022/03/08 00:39:33;;;;;;;;;35.25;31.75;;;;;7.32;38.96;101195.56;2112713;27;47574;-54
2022/03/08 00:40:33;;;;;;;;;43.75;36.00;;;;;7.32;38.88;101187.63;2120916;27;48140;-51
2022/03/08 00:41:33;;;;;;;;;41.50;37.50;;;;;7.30;38.92;101190.28;2123623;27;48003;-53
2022/03/08 00:42:34;;;;;;;;;38.50;34.75;;;;;7.30;39.40;101190.28;2101636;28;47567;-50
2022/03/08 00:43:35;;;;;;;;;41.00;34.25;;;;;7.30;38.95;101190.28;2094998;28;47184;-54
2022/03/08 00:44:35;;;;;;;;;40.00;34.50;;;;;7.30;39.11;101194.69;2119732;27;48071;-55
2022/03/08 00:45:36;;;;;;;;;41.75;37.75;;;;;7.30;39.00;101194.69;2129806;27;47696;-53
2022/03/08 00:46:36;;;;;;;;;36.50;35.50;;;;;7.29;39.05;101198.19;2127540;27;48046;-54
2022/03/08 00:47:39;;;;;;;;;43.00;38.00;;;;;7.28;38.96;101192.03;2129070;27;48010;-54
2022/03/08 00:48:39;;;;;;;;;42.00;37.60;;;;;7.29;38.89;101198.19;2093580;28;47989;-53
2022/03/08 00:49:40;;;;;;;;;44.25;38.00;;;;;7.28;39.07;101194.69;2095485;27;47466;-55
2022/03/08 00:50:41;;;;;;;;;47.60;38.40;;;;;7.28;38.85;101202.59;2125043;27;48353;-56
2022/03/08 00:51:41;;;;;;;;;43.75;38.00;;;;;7.27;38.89;101197.31;2121790;27;47505;-55
2022/03/08 00:52:42;;;;;;;;;36.50;33.50;;;;;7.27;38.98;101197.31;2124945;27;47630;-52
2022/03/08 00:53:42;;;;;;;;;40.50;35.00;;;;;7.26;38.93;101199.09;2126861;27;47420;-52
2022/03/08 00:54:43;;;;;;;;;38.75;35.75;;;;;7.24;38.83;101198.22;2122982;27;47180;-53
2022/03/08 00:55:43;;;;;;;;;48.75;40.00;;;;;7.21;38.97;101203.47;2130025;27;47534;-52
2022/03/08 00:56:44;;;;;;;;;47.50;37.00;;;;;7.20;39.05;101199.06;2126821;27;47804;-53
2022/03/08 00:57:45;;;;;;;;;44.25;37.75;;;;;7.19;39.13;101194.69;2112387;27;47203;-54
2022/03/08 00:58:46;;;;;;;;;42.60;37.20;;;;;7.18;38.82;101203.47;2111574;27;48597;-53
2022/03/08 00:59:46;;;;;;;;;47.00;37.75;;;;;7.17;39.12;101195.56;2121733;27;47791;-55
2022/03/08 01:00:47;;;;;;;;;43.75;37.50;;;;;7.16;38.91;101194.69;2122659;27;47358;-54
2022/03/08 01:01:48;;;;;;;;;40.00;35.00;;;;;7.16;39.22;101183.25;2126434;27;47442;-54
2022/03/08 01:02:48;;;;;;;;;38.00;36.60;;;;;7.15;39.34;101192.03;2121097;27;47784;-55
2022/03/08 01:03:49;;;;;;;;;46.25;37.25;;;;;7.14;39.27;101188.53;2127980;27;47298;-54
2022/03/08 01:04:49;;;;;;;;;36.50;34.00;;;;;7.12;39.39;101186.78;2126153;27;47174;-53
2022/03/08 01:05:50;;;;;;;;;38.50;36.00;;;;;7.12;39.34;101186.78;2121407;27;47904;-55
2022/03/08 01:06:50;;;;;;;;;42.00;37.25;;;;;7.12;39.04;101181.50;2121635;27;47516;-54
2022/03/08 01:07:51;;;;;;;;;39.25;35.50;;;;;7.10;39.23;101184.09;2124066;27;47557;-54
2022/03/08 01:08:52;;;;;;;;;41.80;37.60;;;;;7.10;39.13;101186.75;2119680;27;47137;-53
2022/03/08 01:09:52;;;;;;;;;32.75;31.75;;;;;7.08;39.07;101184.13;2120749;27;47256;-57
2022/03/08 01:10:53;;;;;;;;;37.00;34.75;;;;;7.08;38.94;101183.22;2124796;27;47844;-53
2022/03/08 01:11:53;;;;;;;;;41.50;35.75;;;;;7.08;39.07;101181.47;2128636;27;47913;-51
2022/03/08 01:12:54;;;;;;;;;44.25;38.75;;;;;7.07;39.38;101177.06;2101982;28;48145;-52
2022/03/08 01:13:55;;;;;;;;;34.60;32.20;;;;;7.06;39.10;101171.81;2103314;28;47212;-53
2022/03/08 01:14:56;;;;;;;;;32.75;30.50;;;;;7.06;39.13;101179.72;2123846;27;48121;-53
2022/03/08 01:15:56;;;;;;;;;41.25;36.00;;;;;7.05;39.23;101181.47;2121854;27;47783;-51
2022/03/08 01:16:56;;;;;;;;;40.50;37.00;;;;;7.04;39.42;101174.44;2127055;27;47665;-52
2022/03/08 01:17:57;;;;;;;;;35.75;30.25;;;;;7.05;39.34;101180.59;2107327;27;47777;-54
2022/03/08 01:18:58;;;;;;;;;41.50;36.00;;;;;7.05;39.42;101180.59;2103908;27;47861;-54
2022/03/08 01:19:59;;;;;;;;;35.60;34.60;;;;;7.05;39.63;101183.25;2121994;27;47778;-55
2022/03/08 01:20:59;;;;;;;;;43.25;38.75;;;;;7.03;38.94;101180.59;2126735;27;47824;-55
2022/03/08 01:22:00;;;;;;;;;38.75;36.00;;;;;7.02;39.35;101178.84;2125738;27;46994;-53
2022/03/08 01:23:00;;;;;;;;;37.50;35.75;;;;;7.00;39.40;101172.69;2124780;27;47296;-55
2022/03/08 01:24:02;;;;;;;;;44.00;37.25;;;;;7.01;39.64;101176.22;2095583;28;47364;-55
2022/03/08 01:25:04;;;;;;;;;40.20;37.20;;;;;7.00;39.20;101175.34;2098191;27;47468;-55
2022/03/08 01:26:04;;;;;;;;;42.60;37.00;;;;;6.99;39.18;101168.31;2120772;27;47518;-55
2022/03/08 01:27:05;;;;;;;;;42.00;35.00;;;;;6.99;39.23;101178.84;2121059;27;47444;-52
2022/03/08 01:28:07;;;;;;;;;45.00;36.75;;;;;6.99;39.51;101175.34;2120722;27;47699;-51
2022/03/08 01:29:07;;;;;;;;;39.60;35.40;;;;;7.00;39.57;101179.75;2120661;27;47303;-52
2022/03/08 01:30:11;;;;;;;;;37.50;34.75;;;;;6.99;39.49;101175.34;2121055;27;47916;-54
2022/03/08 01:31:12;;;;;;;;;37.80;35.20;;;;;6.97;39.57;101175.31;2121541;27;47941;-53
2022/03/08 01:32:12;;;;;;;;;46.00;38.00;;;;;6.94;39.45;101166.53;2121771;27;48066;-54
2022/03/08 01:33:13;;;;;;;;;41.25;35.50;;;;;6.95;39.34;101174.44;2126388;27;47876;-52
2022/03/08 01:34:13;;;;;;;;;35.75;35.00;;;;;6.94;39.16;101172.69;2121247;27;47445;-54
2022/03/08 01:35:15;;;;;;;;;43.25;37.00;;;;;6.93;39.41;101168.28;2121472;27;47606;-54
2022/03/08 01:36:16;;;;;;;;;43.80;38.80;;;;;6.92;39.70;101169.16;2112035;27;47286;-52
2022/03/08 01:37:16;;;;;;;;;42.60;37.40;;;;;6.92;39.29;101171.81;2111942;27;47565;-51
2022/03/08 01:38:16;;;;;;;;;44.00;37.00;;;;;6.92;39.55;101168.28;2125649;27;47233;-53
2022/03/08 01:39:17;;;;;;;;;39.50;35.00;;;;;6.91;39.36;101169.16;2129529;27;47072;-53
2022/03/08 01:40:18;;;;;;;;;44.25;37.75;;;;;6.91;39.64;101171.81;2121202;27;47804;-51
2022/03/08 01:41:18;;;;;;;;;46.40;38.40;;;;;6.91;39.76;101167.41;2120965;27;47477;-53
2022/03/08 01:42:22;;;;;;;;;38.00;34.50;;;;;6.91;39.65;101166.53;2122185;27;47581;-51
2022/03/08 01:43:23;;;;;;;;;41.40;37.80;;;;;6.91;39.71;101161.25;2121033;27;47906;-53
2022/03/08 01:44:23;;;;;;;;;37.25;35.25;;;;;6.88;39.56;101162.13;2121284;27;47856;-52
2022/03/08 01:45:25;;;;;;;;;40.75;37.00;;;;;6.90;39.17;101167.41;2121109;27;47279;-50
2022/03/08 01:46:25;;;;;;;;;39.40;36.80;;;;;6.89;39.57;101165.66;2121294;27;47801;-53
2022/03/08 01:47:26;;;;;;;;;41.75;38.75;;;;;6.89;39.63;101163.03;2120813;27;47583;-53
2022/03/08 01:48:27;;;;;;;;;44.00;36.50;;;;;6.89;39.58;101166.53;2121203;27;47794;-54
2022/03/08 01:49:27;;;;;;;;;40.00;35.00;;;;;6.88;39.40;101164.78;2121209;27;47920;-52
2022/03/08 01:50:28;;;;;;;;;36.25;29.50;;;;;6.87;39.48;101164.78;2121456;27;47680;-52
2022/03/08 01:51:28;;;;;;;;;40.75;36.25;;;;;6.85;39.84;101159.47;2123027;27;47642;-54
2022/03/08 01:52:29;;;;;;;;;41.75;38.00;;;;;6.85;39.60;101164.75;2125034;27;47142;-52
2022/03/08 01:53:30;;;;;;;;;32.50;30.50;;;;;6.84;39.52;101160.34;2121474;27;47321;-55
2022/03/08 01:54:30;;;;;;;;;39.50;35.25;;;;;6.84;39.62;101152.44;2121266;27;47349;-54
2022/03/08 01:55:31;;;;;;;;;36.75;34.25;;;;;6.84;39.49;101163.00;2127744;27;47511;-53
2022/03/08 01:56:32;;;;;;;;;26.00;22.75;;;;;6.85;39.51;101163.88;2126147;27;47746;-55
2022/03/08 01:57:33;;;;;;;;;41.00;37.50;;;;;6.84;39.27;101164.75;2121032;27;47793;-53
2022/03/08 01:58:33;;;;;;;;;42.20;36.60;;;;;6.84;39.54;101151.56;2121584;27;47831;-51
2022/03/08 01:59:34;;;;;;;;;38.50;34.75;;;;;6.83;39.86;101155.97;2121062;27;47862;-50
2022/03/08 02:00:34;;;;;;;;;41.75;36.00;;;;;6.83;39.55;101157.72;2121063;27;47152;-53
2022/03/08 02:01:35;;;;;;;;;39.75;36.00;;;;;6.82;39.76;101156.84;2121079;27;47988;-51
2022/03/08 02:02:35;;;;;;;;;34.75;34.50;;;;;6.80;39.34;101155.97;2120918;27;47787;-51
2022/03/08 02:03:36;;;;;;;;;34.50;31.75;;;;;6.79;39.56;101154.22;2121173;27;47861;-54
2022/03/08 02:04:36;;;;;;;;;43.00;38.25;;;;;6.79;39.85;101155.09;2121002;27;47437;-52
2022/03/08 02:05:37;;;;;;;;;41.50;38.00;;;;;6.79;39.61;101159.47;2102691;28;47754;-54
2022/03/08 02:06:38;;;;;;;;;45.25;38.25;;;;;6.79;39.35;101160.38;2110576;27;48124;-53
2022/03/08 02:07:38;;;;;;;;;43.00;37.00;;;;;6.79;39.86;101159.47;2127100;27;47171;-54
2022/03/08 02:08:39;;;;;;;;;44.25;35.25;;;;;6.76;39.76;101155.09;2121233;27;47565;-50
2022/03/08 02:09:40;;;;;;;;;48.25;40.00;;;;;6.77;39.23;101155.97;2117700;27;47534;-54
2022/03/08 02:10:40;;;;;;;;;32.00;31.20;;;;;6.76;39.38;101154.22;2120692;27;48080;-54
2022/03/08 02:11:42;;;;;;;;;40.50;34.50;;;;;6.78;39.77;101160.38;2129738;27;47597;-55
2022/03/08 02:12:42;;;;;;;;;41.00;37.80;;;;;6.76;39.88;101152.47;2125469;27;47913;-55
2022/03/08 02:13:43;;;;;;;;;40.25;37.00;;;;;6.78;39.67;101165.66;2121422;27;47461;-54
2022/03/08 02:14:43;;;;;;;;;42.25;34.75;;;;;6.77;39.81;101146.31;2121071;27;47344;-54
2022/03/08 02:15:49;;;;;;;;;45.75;37.50;;;;;6.77;39.96;101148.06;2122650;27;47564;-54
2022/03/08 02:16:49;;;;;;;;;41.00;37.20;;;;;6.76;39.55;101151.56;2129757;27;47570;-55
2022/03/08 02:17:51;;;;;;;;;39.50;34.75;;;;;6.76;39.96;101151.56;2129165;27;48015;-53
2022/03/08 02:18:52;;;;;;;;;39.60;35.40;;;;;6.77;39.90;101148.06;2121205;27;47573;-53
2022/03/08 02:19:56;;;;;;;;;35.25;34.75;;;;;6.75;40.02;101152.47;2121104;27;47976;-53
2022/03/08 02:20:59;;;;;;;;;43.00;36.40;;;;;6.75;39.65;101150.69;2121046;27;47736;-54
2022/03/08 02:21:59;;;;;;;;;38.00;35.00;;;;;6.75;39.87;101144.53;2112163;27;47271;-52
2022/03/08 02:23:00;;;;;;;;;43.25;37.25;;;;;6.74;39.55;101140.16;2112076;27;48092;-54
2022/03/08 02:24:00;;;;;;;;;43.50;38.00;;;;;6.74;39.93;101137.50;2121196;27;47511;-53
2022/03/08 02:25:02;;;;;;;;;41.00;36.25;;;;;6.74;39.79;101138.38;2127082;27;47545;-54
2022/03/08 02:26:02;;;;;;;;;42.20;37.00;;;;;6.73;39.78;101133.09;2119482;27;47639;-54
2022/03/08 02:27:03;;;;;;;;;44.00;38.25;;;;;6.73;39.50;101139.28;2113604;27;47176;-54
2022/03/08 02:28:04;;;;;;;;;41.50;35.25;;;;;6.73;39.96;101143.63;2123348;27;47262;-54
2022/03/08 02:29:08;;;;;;;;;41.00;36.75;;;;;6.73;39.66;101138.38;2123918;27;47774;-53
2022/03/08 02:30:10;;;;;;;;;43.00;38.80;;;;;6.73;40.06;101127.81;2120781;27;48348;-52
2022/03/08 02:31:11;;;;;;;;;42.20;38.00;;;;;6.72;39.99;101128.69;2125134;27;47088;-54
2022/03/08 02:32:11;;;;;;;;;39.75;35.25;;;;;6.73;40.00;101130.44;2122635;27;47737;-53
2022/03/08 02:33:11;;;;;;;;;38.00;36.75;;;;;6.72;39.96;101131.34;2120952;27;47331;-51
2022/03/08 02:34:12;;;;;;;;;35.00;34.50;;;;;6.72;39.86;101131.34;2123248;27;47586;-55
2022/03/08 02:35:15;;;;;;;;;36.50;34.75;;;;;6.72;40.06;101126.94;2129668;27;47714;-52
2022/03/08 02:36:16;;;;;;;;;42.00;37.60;;;;;6.72;40.26;101133.97;2129450;27;47244;-52
2022/03/08 02:37:16;;;;;;;;;41.00;36.75;;;;;6.72;39.77;101136.59;2120496;27;47200;-54
2022/03/08 02:38:16;;;;;;;;;41.75;36.00;;;;;6.72;39.89;101123.41;2120322;27;47404;-53
2022/03/08 02:39:17;;;;;;;;;37.50;35.50;;;;;6.71;39.88;101133.09;2129571;27;48387;-54
2022/03/08 02:40:22;;;;;;;;;38.50;37.00;;;;;6.71;39.75;101132.22;2130611;27;47618;-54
2022/03/08 02:41:23;;;;;;;;;38.80;34.60;;;;;6.70;40.10;101128.69;2122351;27;47761;-52
2022/03/08 02:42:23;;;;;;;;;38.00;36.80;;;;;6.69;40.02;101126.94;2125973;27;48267;-53
2022/03/08 02:43:23;;;;;;;;;41.00;36.75;;;;;6.70;39.96;101119.91;2131009;27;47450;-52
2022/03/08 02:44:24;;;;;;;;;39.25;35.00;;;;;6.69;40.10;101120.78;2131017;27;47427;-51
2022/03/08 02:45:25;;;;;;;;;40.00;36.25;;;;;6.69;39.99;101126.06;2129094;27;47369;-52
2022/03/08 02:46:25;;;;;;;;;38.25;36.50;;;;;6.69;39.54;101126.06;2122705;27;47207;-55
2022/03/08 02:47:26;;;;;;;;;40.00;37.00;;;;;6.70;40.00;101133.09;2122544;27;47667;-53
2022/03/08 02:48:29;;;;;;;;;40.50;36.75;;;;;6.69;40.05;101128.69;2122274;27;48007;-53
2022/03/08 02:49:30;;;;;;;;;36.80;35.40;;;;;6.69;39.83;101128.69;2122258;27;48074;-53
2022/03/08 02:50:30;;;;;;;;;41.60;36.60;;;;;6.69;40.10;101123.44;2130525;27;47633;-53
2022/03/08 02:51:31;;;;;;;;;38.75;34.00;;;;;6.69;40.38;101120.78;2128379;27;47598;-53
2022/03/08 02:52:31;;;;;;;;;38.25;35.75;;;;;6.68;40.22;101113.75;2125911;27;47552;-50
2022/03/08 02:53:32;;;;;;;;;39.00;34.50;;;;;6.67;39.84;101115.50;2131117;27;47922;-53
2022/03/08 02:54:32;;;;;;;;;37.75;31.75;;;;;6.67;40.27;101117.28;2130943;27;47326;-53
2022/03/08 02:55:35;;;;;;;;;37.25;34.75;;;;;6.67;39.96;101117.28;2131047;27;48752;-54
2022/03/08 02:56:35;;;;;;;;;40.20;36.00;;;;;6.67;40.30;101114.63;2130784;27;47693;-55
2022/03/08 02:57:36;;;;;;;;;38.00;36.25;;;;;6.67;40.17;101115.50;2131068;27;47408;-54
2022/03/08 02:58:36;;;;;;;;;37.00;33.75;;;;;6.68;39.99;101114.63;2130945;27;47313;-51
2022/03/08 02:59:36;;;;;;;;;43.00;37.00;;;;;6.68;39.67;101106.72;2130815;27;47545;-53
2022/03/08 03:00:37;;;;;;;;;45.25;40.25;;;;;6.68;40.06;101109.34;2130549;27;48218;-52
2022/03/08 03:01:37;;;;;;;;;39.50;37.00;;;;;6.68;40.16;101104.09;2130547;27;47344;-54
2022/03/08 03:02:38;;;;;;;;;40.00;35.00;;;;;6.68;40.42;101109.34;2130675;27;46192;-55
2022/03/08 03:03:39;;;;;;;;;43.00;37.60;;;;;6.68;40.13;101109.34;2129895;27;47924;-54
2022/03/08 03:04:39;;;;;;;;;43.50;37.00;;;;;6.67;40.10;101104.97;2123153;27;47456;-54
2022/03/08 03:05:40;;;;;;;;;40.75;36.75;;;;;6.67;40.30;101097.06;2113114;27;46506;-55
2022/03/08 03:06:41;;;;;;;;;39.50;36.75;;;;;6.66;40.08;101100.56;2113866;27;47343;-54
2022/03/08 03:07:42;;;;;;;;;40.00;37.25;;;;;6.69;40.41;101097.06;2130999;27;47834;-50
2022/03/08 03:08:43;;;;;;;;;42.40;37.80;;;;;6.68;40.15;101090.03;2130659;27;48121;-54
2022/03/08 03:09:43;;;;;;;;;43.75;38.00;;;;;6.68;40.06;101098.81;2130953;27;47497;-53
2022/03/08 03:10:44;;;;;;;;;44.50;37.50;;;;;6.67;40.09;101097.06;2130678;27;47727;-55
2022/03/08 03:11:44;;;;;;;;;46.50;39.75;;;;;6.65;39.66;101096.19;2129318;27;47855;-53
2022/03/08 03:12:45;;;;;;;;;38.50;36.50;;;;;6.65;40.06;101103.22;2098268;28;47522;-51
2022/03/08 03:13:46;;;;;;;;;37.80;35.20;;;;;6.64;40.06;101096.19;2101292;28;47804;-51
2022/03/08 03:14:46;;;;;;;;;38.50;35.50;;;;;6.65;39.82;101101.47;2130404;27;48199;-54
2022/03/08 03:15:47;;;;;;;;;44.75;37.50;;;;;6.65;40.14;101101.47;2124222;27;48006;-51
2022/03/08 03:16:47;;;;;;;;;42.50;38.00;;;;;6.66;40.47;101099.69;2121877;27;47550;-54
2022/03/08 03:17:48;;;;;;;;;35.00;30.50;;;;;6.66;40.57;101099.69;2121986;27;47693;-54
2022/03/08 03:18:49;;;;;;;;;39.60;37.00;;;;;6.67;39.98;101098.81;2121916;27;47512;-55
2022/03/08 03:19:49;;;;;;;;;37.75;34.75;;;;;6.67;39.97;101098.81;2122576;27;48125;-53
2022/03/08 03:20:50;;;;;;;;;41.25;37.75;;;;;6.67;40.27;101098.81;2122214;27;47630;-55
2022/03/08 03:21:50;;;;;;;;;40.75;36.75;;;;;6.67;39.99;101096.19;2122071;27;47526;-51
2022/03/08 03:22:51;;;;;;;;;42.00;38.00;;;;;6.66;40.11;101097.06;2122393;27;47338;-52
2022/03/08 03:23:51;;;;;;;;;34.75;32.25;;;;;6.66;40.02;101097.94;2124790;27;47341;-54
2022/03/08 03:24:51;;;;;;;;;29.00;26.00;;;;;6.66;40.28;101097.94;2125670;27;47903;-53
2022/03/08 03:25:52;;;;;;;;;42.75;37.00;;;;;6.67;39.92;101097.06;2122322;27;47583;-54
2022/03/08 03:26:52;;;;;;;;;40.25;36.00;;;;;6.68;40.40;101096.19;2122078;27;47461;-53
2022/03/08 03:27:53;;;;;;;;;42.50;34.75;;;;;6.69;40.21;101099.69;2122236;27;47837;-53
2022/03/08 03:28:53;;;;;;;;;35.00;35.00;;;;;6.70;40.04;101096.16;2122038;27;47528;-53
2022/03/08 03:29:53;;;;;;;;;38.75;34.00;;;;;6.70;40.24;101096.16;2121759;27;47531;-52
2022/03/08 03:30:54;;;;;;;;;45.50;39.75;;;;;6.69;39.68;101092.66;2121826;27;47597;-50
2022/03/08 03:31:54;;;;;;;;;40.25;37.50;;;;;6.70;40.54;101085.63;2122053;27;47475;-55
2022/03/08 03:32:55;;;;;;;;;38.25;35.25;;;;;6.70;40.20;101091.78;2122184;27;47610;-54
2022/03/08 03:33:55;;;;;;;;;42.25;37.75;;;;;6.69;40.16;101090.03;2122212;27;47754;-54
2022/03/08 03:34:55;;;;;;;;;35.75;31.25;;;;;6.69;40.30;101094.41;2122261;27;47812;-53
2022/03/08 03:35:56;;;;;;;;;41.75;36.75;;;;;6.69;39.89;101095.28;2122352;27;47565;-51
2022/03/08 03:36:56;;;;;;;;;38.75;35.50;;;;;6.68;40.39;101090.91;2123493;27;47149;-52
2022/03/08 03:37:57;;;;;;;;;43.25;37.75;;;;;6.68;40.39;101090.91;2127933;27;47596;-54
2022/03/08 03:38:57;;;;;;;;;36.25;35.25;;;;;6.68;40.43;101093.53;2122092;27;47834;-54
2022/03/08 03:39:57;;;;;;;;;42.50;37.25;;;;;6.68;40.06;101090.91;2112741;27;47413;-53
2022/03/08 03:40:58;;;;;;;;;42.25;36.75;;;;;6.69;40.13;101089.13;2107680;27;47388;-55
2022/03/08 03:41:58;;;;;;;;;37.75;35.50;;;;;6.67;39.88;101085.63;2112341;27;48014;-54
2022/03/08 03:42:59;;;;;;;;;44.00;37.75;;;;;6.65;40.17;101090.91;2116997;27;47510;-54
2022/03/08 03:43:59;;;;;;;;;43.00;38.25;;;;;6.64;40.40;101083.88;2121181;27;47415;-50
2022/03/08 03:45:00;;;;;;;;;41.75;37.00;;;;;6.64;40.10;101083.00;2120774;27;47258;-54
2022/03/08 03:46:00;;;;;;;;;42.00;37.75;;;;;6.63;40.06;101089.16;2120542;27;47698;-52
2022/03/08 03:47:01;;;;;;;;;46.00;38.00;;;;;6.63;40.80;101089.16;2121051;27;47157;-52
2022/03/08 03:48:02;;;;;;;;;43.00;38.00;;;;;6.63;40.23;101087.41;2120910;27;47497;-52
2022/03/08 03:49:02;;;;;;;;;45.00;37.50;;;;;6.63;39.95;101092.66;2110197;27;47537;-54
2022/03/08 03:50:05;;;;;;;;;43.50;38.50;;;;;6.62;40.27;101082.13;2104178;28;45068;-50
2022/03/08 03:51:06;;;;;;;;;51.40;42.00;;;;;6.61;40.38;101083.00;2117720;27;47949;-53
2022/03/08 03:52:06;;;;;;;;;36.75;35.75;;;;;6.61;40.39;101075.97;2119253;27;47749;-51
2022/03/08 03:53:08;;;;;;;;;43.00;36.75;;;;;6.61;40.25;101075.09;2112716;27;47471;-53
2022/03/08 03:54:08;;;;;;;;;43.40;37.60;;;;;6.61;40.04;101083.00;2115557;27;47780;-53
2022/03/08 03:55:10;;;;;;;;;44.25;38.75;;;;;6.60;40.45;101079.47;2121179;27;47540;-53
2022/03/08 03:56:10;;;;;;;;;42.00;37.60;;;;;6.59;40.14;101076.81;2112815;27;47634;-52
2022/03/08 03:57:12;;;;;;;;;43.75;37.50;;;;;6.58;40.26;101082.97;2115304;27;47559;-53
2022/03/08 03:58:12;;;;;;;;;38.80;34.00;;;;;6.57;40.13;101082.09;2115068;27;47442;-52
2022/03/08 03:59:13;;;;;;;;;41.50;37.25;;;;;6.57;40.70;101078.59;2112982;27;47396;-53
2022/03/08 04:00:15;;;;;;;;;46.25;38.00;;;;;6.56;40.52;101082.97;2113549;27;48022;-51
2022/03/08 04:01:16;;;;;;;;;36.20;35.40;;;;;6.56;40.67;101090.00;2120873;27;47911;-55
2022/03/08 04:02:16;;;;;;;;;43.75;39.50;;;;;6.54;40.36;101090.03;2120765;27;48043;-55
2022/03/08 04:03:18;;;;;;;;;36.25;33.25;;;;;6.54;40.27;101084.75;2103869;28;47514;-53
2022/03/08 04:04:19;;;;;;;;;48.20;39.60;;;;;6.54;40.19;101086.50;2104191;27;48068;-54
2022/03/08 04:05:19;;;;;;;;;38.00;35.00;;;;;6.54;40.27;101090.03;2120860;27;47690;-54
2022/03/08 04:06:20;;;;;;;;;42.50;37.50;;;;;6.54;40.31;101090.03;2121028;27;47504;-53
2022/03/08 04:07:20;;;;;;;;;38.00;33.00;;;;;6.53;40.12;101090.91;2114162;27;47584;-52
2022/03/08 04:08:20;;;;;;;;;43.50;40.00;;;;;6.53;40.66;101088.25;2112364;27;48046;-50
2022/03/08 04:09:21;;;;;;;;;41.25;37.75;;;;;6.54;40.82;101086.50;2112429;27;47569;-53
2022/03/08 04:10:21;;;;;;;;;41.25;35.25;;;;;6.53;40.58;101090.03;2112198;27;47835;-53
2022/03/08 04:11:22;;;;;;;;;44.50;37.25;;;;;6.50;40.90;101088.28;2117209;27;48130;-54
2022/03/08 04:12:22;;;;;;;;;38.75;35.25;;;;;6.48;40.15;101087.41;2114195;27;48079;-55
2022/03/08 04:13:23;;;;;;;;;47.00;38.75;;;;;6.46;40.21;101081.22;2125469;27;47811;-50
2022/03/08 04:14:25;;;;;;;;;39.50;35.50;;;;;6.45;40.38;101085.59;2130387;27;47455;-56
2022/03/08 04:15:26;;;;;;;;;45.00;38.40;;;;;6.45;40.77;101084.72;2121471;27;47778;-53
2022/03/08 04:16:26;;;;;;;;;38.50;36.75;;;;;6.44;40.40;101080.34;2121647;27;47329;-54
2022/03/08 04:17:27;;;;;;;;;41.25;37.00;;;;;6.44;40.79;101085.59;2122055;27;46917;-54
2022/03/08 04:18:27;;;;;;;;;44.25;39.00;;;;;6.44;40.21;101082.97;2121962;27;47671;-52
2022/03/08 04:19:28;;;;;;;;;38.25;36.00;;;;;6.45;40.39;101082.09;2121799;27;47436;-55
2022/03/08 04:20:28;;;;;;;;;38.25;32.00;;;;;6.45;40.47;101084.72;2121496;27;48128;-54
2022/03/08 04:21:28;;;;;;;;;40.00;33.50;;;;;6.44;40.39;101082.97;2121685;27;47229;-54
2022/03/08 04:22:29;;;;;;;;;47.25;39.00;;;;;6.43;40.63;101087.38;2108775;27;48199;-53
2022/03/08 04:23:29;;;;;;;;;41.50;37.00;;;;;6.42;40.29;101084.72;2112123;27;47922;-51
2022/03/08 04:24:30;;;;;;;;;48.25;41.00;;;;;6.40;40.34;101084.72;2130469;27;47629;-55
2022/03/08 04:25:31;;;;;;;;;45.50;37.75;;;;;6.40;40.82;101087.38;2126259;27;47881;-55
2022/03/08 04:26:31;;;;;;;;;41.20;35.60;;;;;6.39;40.28;101080.34;2121824;27;47790;-53
2022/03/08 04:27:32;;;;;;;;;40.75;36.00;;;;;6.39;40.50;101087.38;2115274;27;47092;-53
2022/03/08 04:28:32;;;;;;;;;48.25;38.50;;;;;6.38;40.92;101082.97;2113064;27;47684;-50
2022/03/08 04:29:33;;;;;;;;;41.50;36.50;;;;;6.37;40.54;101082.09;2121911;27;47686;-53
2022/03/08 04:30:33;;;;;;;;;42.00;37.50;;;;;6.37;40.48;101083.88;2126891;27;47387;-54
2022/03/08 04:31:33;;;;;;;;;45.25;37.75;;;;;6.37;40.68;101082.09;2129156;27;47952;-51
2022/03/08 04:32:34;;;;;;;;;40.50;37.00;;;;;6.36;40.83;101082.97;2123183;27;47971;-53
2022/03/08 04:33:34;;;;;;;;;39.25;33.50;;;;;6.35;40.96;101081.22;2121696;27;47089;-55
2022/03/08 04:34:35;;;;;;;;;39.25;35.75;;;;;6.34;41.01;101087.34;2121730;27;48355;-53
2022/03/08 04:35:35;;;;;;;;;21.00;17.75;;;;;6.33;40.75;101079.44;2121628;27;47872;-53
2022/03/08 04:36:36;;;;;;;;;36.75;35.50;;;;;6.31;40.53;101076.81;2121385;27;47940;-52
2022/03/08 04:37:37;;;;;;;;;42.50;36.50;;;;;6.30;40.54;101077.69;2121608;27;47782;-53
2022/03/08 04:38:38;;;;;;;;;47.20;38.60;;;;;6.30;40.74;101069.78;2121696;27;47537;-52
2022/03/08 04:39:38;;;;;;;;;47.00;37.75;;;;;6.31;40.56;101068.91;2121486;27;47837;-54